createdAt,value
2023-05-21T00:01:25.646Z,48.43
2023-05-21T00:03:52.688Z,47.94
2023-05-21T00:06:20.952Z,48.48
2023-05-21T00:08:48.100Z,48.59
2023-05-21T00:11:14.939Z,48.68
2023-05-21T00:13:42.163Z,48.65
2023-05-21T00:16:10.991Z,48.73
2023-05-21T00:18:39.438Z,48.77
2023-05-21T00:21:06.709Z,48.58
2023-05-21T00:23:34.082Z,48.75
2023-05-21T00:26:01.290Z,48.67
2023-05-21T00:28:28.199Z,48.81
2023-05-21T00:30:55.045Z,49.09
2023-05-21T00:33:22.538Z,48.90
2023-05-21T00:35:49.410Z,48.87
2023-05-21T00:38:18.480Z,49.17
2023-05-21T00:40:45.474Z,49.10
2023-05-21T00:43:14.394Z,49.09
2023-05-21T00:45:44.668Z,49.17
2023-05-21T00:48:12.978Z,49.34
2023-05-21T00:50:40.637Z,49.23
2023-05-21T00:53:11.386Z,49.28
2023-05-21T00:55:38.616Z,49.51
2023-05-21T00:58:06.612Z,49.55
2023-05-21T01:00:40.588Z,49.69
2023-05-21T01:03:08.079Z,49.82
2023-05-21T01:05:35.474Z,49.90
2023-05-21T01:08:03.197Z,49.97
2023-05-21T01:10:30.835Z,50.18
2023-05-21T01:12:59.125Z,50.15
2023-05-21T01:15:27.366Z,50.12
2023-05-21T01:17:55.779Z,50.19
2023-05-21T01:20:24.621Z,50.28
2023-05-21T01:22:54.069Z,50.28
2023-05-21T01:25:24.094Z,50.38
2023-05-21T01:27:51.472Z,49.73
2023-05-21T01:30:20.046Z,49.92
2023-05-21T01:33:17.486Z,50.20
2023-05-21T01:36:08.900Z,50.38
2023-05-21T01:38:49.322Z,50.39
2023-05-21T01:41:19.952Z,50.39
2023-05-21T01:43:48.015Z,50.40
2023-05-21T01:46:20.378Z,50.80
2023-05-21T01:48:49.968Z,50.56
2023-05-21T01:51:17.109Z,50.66
2023-05-21T01:53:43.954Z,50.70
2023-05-21T01:56:11.252Z,50.55
2023-05-21T01:58:38.163Z,50.73
2023-05-21T02:01:05.596Z,50.92
2023-05-21T02:03:32.884Z,50.79
2023-05-21T02:05:59.828Z,50.68
2023-05-21T02:08:27.834Z,50.71
2023-05-21T02:10:55.563Z,50.86
2023-05-21T02:13:25.173Z,50.85
2023-05-21T02:15:54.442Z,50.99
2023-05-21T02:18:21.782Z,50.75
2023-05-21T02:20:48.662Z,51.16
2023-05-21T02:23:15.677Z,51.10
2023-05-21T02:25:42.517Z,51.27
2023-05-21T02:28:09.441Z,51.21
2023-05-21T02:30:36.696Z,51.28
2023-05-21T02:33:03.665Z,51.19
2023-05-21T02:35:30.727Z,51.31
2023-05-21T02:37:59.264Z,51.40
2023-05-21T02:40:26.394Z,51.24
2023-05-21T02:42:53.293Z,51.28
2023-05-21T02:45:21.633Z,51.23
2023-05-21T02:47:48.618Z,51.22
2023-05-21T02:50:18.458Z,51.22
2023-05-21T02:52:52.349Z,50.98
2023-05-21T02:55:19.457Z,51.09
2023-05-21T02:57:46.287Z,50.96
2023-05-21T03:00:14.174Z,51.01
2023-05-21T03:02:43.240Z,51.09
2023-05-21T03:05:10.520Z,50.90
2023-05-21T03:07:37.382Z,50.94
2023-05-21T03:10:05.386Z,51.00
2023-05-21T03:12:32.301Z,50.81
2023-05-21T03:15:00.813Z,50.99
2023-05-21T03:17:28.313Z,50.80
2023-05-21T03:19:55.911Z,50.79
2023-05-21T03:22:22.849Z,50.77
2023-05-21T03:24:50.109Z,50.96
2023-05-21T03:27:18.313Z,50.95
2023-05-21T03:29:46.008Z,51.03
2023-05-21T03:32:13.521Z,51.20
2023-05-21T03:34:41.035Z,51.17
2023-05-21T03:37:08.388Z,51.26
2023-05-21T03:39:35.440Z,51.28
2023-05-21T03:42:02.573Z,51.80
2023-05-21T03:44:46.554Z,51.49
2023-05-21T03:47:30.446Z,51.52
2023-05-21T03:49:58.455Z,51.66
2023-05-21T03:52:25.422Z,51.79
2023-05-21T03:54:52.454Z,51.88
2023-05-21T03:57:19.396Z,51.91
2023-05-21T03:59:47.626Z,51.79
2023-05-21T04:02:15.625Z,51.79
2023-05-21T04:04:44.310Z,51.89
2023-05-21T04:07:14.533Z,51.59
2023-05-21T04:09:42.069Z,51.52
2023-05-21T04:12:08.984Z,51.57
2023-05-21T04:14:40.117Z,51.62
2023-05-21T04:17:06.981Z,51.65
2023-05-21T04:19:34.121Z,51.49
2023-05-21T04:22:03.690Z,51.60
2023-05-21T04:24:32.180Z,51.67
2023-05-21T04:27:13.833Z,51.48
2023-05-21T04:29:43.200Z,51.57
2023-05-21T04:32:11.616Z,51.71
2023-05-21T04:34:39.618Z,51.74
2023-05-21T04:37:06.902Z,51.81
2023-05-21T04:39:34.717Z,51.78
2023-05-21T04:42:03.033Z,51.63
2023-05-21T04:44:30.266Z,51.81
2023-05-21T04:46:58.729Z,51.84
2023-05-21T04:49:25.716Z,51.79
2023-05-21T04:51:52.617Z,51.91
2023-05-21T04:54:20.426Z,51.94
2023-05-21T04:56:47.324Z,51.81
2023-05-21T04:59:14.931Z,51.78
2023-05-21T05:01:43.824Z,51.85
2023-05-21T05:04:10.776Z,51.93
2023-05-21T05:06:37.677Z,51.87
2023-05-21T05:09:05.402Z,52.08
2023-05-21T05:11:32.277Z,51.93
2023-05-21T05:13:59.165Z,52.03
2023-05-21T05:16:26.068Z,52.29
2023-05-21T05:18:56.354Z,52.37
2023-05-21T05:21:24.056Z,52.45
2023-05-21T05:23:51.088Z,52.37
2023-05-21T05:26:19.616Z,52.41
2023-05-21T05:28:46.732Z,52.52
2023-05-21T05:31:14.200Z,52.81
2023-05-21T05:33:43.224Z,52.65
2023-05-21T05:36:11.747Z,52.53
2023-05-21T05:38:38.760Z,52.48
2023-05-21T05:41:05.622Z,52.59
2023-05-21T05:43:32.533Z,52.47
2023-05-21T05:46:00.562Z,52.45
2023-05-21T05:48:27.550Z,52.66
2023-05-21T05:50:57.121Z,52.46
2023-05-21T05:53:25.765Z,52.42
2023-05-21T05:55:53.179Z,52.70
2023-05-21T05:58:20.120Z,52.32
2023-05-21T06:01:19.566Z,52.54
2023-05-21T06:03:47.417Z,52.46
2023-05-21T06:06:17.167Z,52.29
2023-05-21T06:08:44.762Z,52.43
2023-05-21T06:11:12.533Z,52.80
2023-05-21T06:13:39.445Z,52.83
2023-05-21T06:16:07.522Z,52.41
2023-05-21T06:18:34.503Z,52.49
2023-05-21T06:21:01.542Z,52.21
2023-05-21T06:23:28.831Z,52.08
2023-05-21T06:25:55.776Z,52.26
2023-05-21T06:28:22.966Z,52.47
2023-05-21T06:30:50.725Z,52.23
2023-05-21T06:33:17.715Z,52.03
2023-05-21T06:35:44.639Z,52.00
2023-05-21T06:38:12.273Z,51.52
2023-05-21T06:40:39.157Z,51.43
2023-05-21T06:43:08.135Z,51.24
2023-05-21T06:45:53.507Z,51.31
2023-05-21T06:48:36.004Z,51.02
2023-05-21T06:51:02.818Z,51.01
2023-05-21T06:53:29.692Z,51.31
2023-05-21T06:55:56.579Z,50.75
2023-05-21T06:58:49.558Z,50.77
2023-05-21T07:01:17.096Z,50.82
2023-05-21T07:03:44.283Z,50.22
2023-05-21T07:06:11.383Z,49.83
2023-05-21T07:08:38.242Z,49.72
2023-05-21T07:11:05.118Z,49.44
2023-05-21T07:13:32.301Z,49.10
2023-05-21T07:15:59.214Z,48.78
2023-05-21T07:18:27.407Z,48.71
2023-05-21T07:20:54.740Z,48.34
2023-05-21T07:23:21.641Z,47.93
2023-05-21T07:25:48.511Z,47.32
2023-05-21T07:28:15.471Z,47.20
2023-05-21T07:30:42.564Z,46.94
2023-05-21T07:33:13.906Z,46.52
2023-05-21T07:35:40.970Z,46.38
2023-05-21T07:38:08.062Z,46.34
2023-05-21T07:40:34.963Z,46.03
2023-05-21T07:43:03.209Z,45.95
2023-05-21T07:45:31.287Z,45.86
2023-05-21T07:47:58.403Z,45.32
2023-05-21T07:50:26.607Z,44.95
2023-05-21T07:52:54.598Z,45.00
2023-05-21T07:55:21.698Z,44.76
2023-05-21T07:57:49.385Z,44.70
2023-05-21T08:00:19.022Z,44.54
2023-05-21T08:02:53.506Z,44.33
2023-05-21T08:05:23.367Z,44.00
2023-05-21T08:07:50.654Z,44.45
2023-05-21T08:10:19.476Z,44.37
2023-05-21T08:12:48.434Z,44.25
2023-05-21T08:15:15.381Z,44.19
2023-05-21T08:17:46.014Z,44.09
2023-05-21T08:20:14.287Z,44.09
2023-05-21T08:22:43.673Z,43.57
2023-05-21T08:25:11.074Z,43.10
2023-05-21T08:27:38.293Z,42.46
2023-05-21T08:30:06.772Z,42.65
2023-05-21T08:32:33.676Z,42.63
2023-05-21T08:35:01.681Z,42.83
2023-05-21T08:37:44.020Z,42.18
2023-05-21T08:40:19.541Z,42.13
2023-05-21T08:42:49.779Z,41.40
2023-05-21T08:45:38.066Z,41.81
2023-05-21T08:48:05.961Z,42.76
2023-05-21T08:50:34.686Z,42.10
2023-05-21T08:53:15.798Z,42.10
2023-05-21T08:55:47.021Z,41.88
2023-05-21T08:58:14.707Z,41.72
2023-05-21T09:00:42.038Z,41.90
2023-05-21T09:03:12.260Z,41.63
2023-05-21T09:05:45.012Z,41.29
2023-05-21T09:08:35.907Z,41.55
2023-05-21T09:11:07.022Z,41.63
2023-05-21T09:13:44.957Z,41.01
2023-05-21T09:16:19.252Z,40.65
2023-05-21T09:18:46.163Z,40.34
2023-05-21T09:21:29.778Z,40.24
2023-05-21T09:24:04.762Z,40.30
2023-05-21T09:26:31.951Z,40.84
2023-05-21T09:29:03.634Z,40.81
2023-05-21T09:31:30.706Z,40.26
2023-05-21T09:33:58.788Z,40.47
2023-05-21T09:36:29.271Z,40.85
2023-05-21T09:38:58.288Z,41.35
2023-05-21T09:41:33.642Z,41.08
2023-05-21T09:44:02.428Z,41.04
2023-05-21T09:46:41.341Z,40.87
2023-05-21T09:49:24.696Z,41.10
2023-05-21T09:51:56.713Z,40.64
2023-05-21T09:54:24.893Z,40.74
2023-05-21T09:56:55.284Z,40.93
2023-05-21T09:59:22.329Z,40.56
2023-05-21T10:01:53.031Z,40.55
2023-05-21T10:04:21.219Z,40.59
2023-05-21T10:06:48.957Z,40.11
2023-05-21T10:09:19.117Z,39.86
2023-05-21T10:11:49.489Z,39.29
2023-05-21T10:14:22.372Z,39.93
2023-05-21T10:16:50.356Z,40.01
2023-05-21T10:19:17.994Z,39.86
2023-05-21T10:21:46.217Z,40.66
2023-05-21T10:24:13.711Z,40.61
2023-05-21T10:26:41.832Z,40.15
2023-05-21T10:29:10.117Z,40.11
2023-05-21T10:31:39.175Z,40.81
2023-05-21T10:34:06.337Z,40.79
2023-05-21T10:36:34.289Z,40.96
2023-05-21T10:39:03.011Z,40.67
2023-05-21T10:41:46.081Z,40.55
2023-05-21T10:44:44.422Z,41.05
2023-05-21T10:47:46.061Z,40.94
2023-05-21T10:50:57.886Z,40.89
2023-05-21T10:53:49.046Z,40.67
2023-05-21T10:56:38.211Z,40.31
2023-05-21T10:59:31.861Z,40.88
2023-05-21T11:01:59.368Z,40.16
2023-05-21T11:04:30.942Z,39.69
2023-05-21T11:06:59.295Z,39.84
2023-05-21T11:09:26.852Z,39.80
2023-05-21T11:11:58.683Z,39.54
2023-05-21T11:14:58.118Z,39.28
2023-05-21T11:17:43.070Z,39.80
2023-05-21T11:20:14.252Z,39.42
2023-05-21T11:22:41.250Z,39.72
2023-05-21T11:25:08.564Z,38.99
2023-05-21T11:27:42.413Z,38.50
2023-05-21T11:30:15.841Z,38.21
2023-05-21T11:33:09.956Z,38.09
2023-05-21T11:35:44.824Z,36.94
2023-05-21T11:38:11.682Z,37.33
2023-05-21T11:40:50.658Z,38.12
2023-05-21T11:43:18.868Z,37.45
2023-05-21T11:45:47.260Z,37.30
2023-05-21T11:48:14.487Z,37.59
2023-05-21T11:50:44.669Z,37.54
2023-05-21T11:53:12.200Z,37.21
2023-05-21T11:55:43.381Z,36.93
2023-05-21T11:58:14.369Z,37.83
2023-05-21T12:00:41.450Z,37.82
2023-05-21T12:03:12.843Z,38.12
2023-05-21T12:05:48.052Z,37.81
2023-05-21T12:08:27.743Z,37.60
2023-05-21T12:10:59.944Z,37.98
2023-05-21T12:13:27.898Z,37.70
2023-05-21T12:15:54.807Z,37.58
2023-05-21T12:18:22.170Z,36.99
2023-05-21T12:20:49.747Z,37.23
2023-05-21T12:23:25.870Z,36.92
2023-05-21T12:25:53.663Z,36.98
2023-05-21T12:28:24.639Z,36.58
2023-05-21T12:30:51.563Z,36.98
2023-05-21T12:33:19.005Z,36.89
2023-05-21T12:35:50.362Z,36.64
2023-05-21T12:38:17.440Z,36.30
2023-05-21T12:40:45.434Z,35.79
2023-05-21T12:43:12.418Z,36.04
2023-05-21T12:45:39.667Z,35.73
2023-05-21T12:48:06.955Z,35.80
2023-05-21T12:50:35.594Z,35.00
2023-05-21T12:53:02.878Z,35.18
2023-05-21T12:55:31.663Z,34.63
2023-05-21T12:58:08.864Z,34.56
2023-05-21T13:00:36.854Z,34.56
2023-05-21T13:03:07.152Z,34.53
2023-05-21T13:05:34.635Z,34.60
2023-05-21T13:08:01.707Z,34.32
2023-05-21T13:10:28.656Z,35.01
2023-05-21T13:12:55.699Z,34.32
2023-05-21T13:15:22.602Z,33.96
2023-05-21T13:17:50.844Z,34.28
2023-05-21T13:20:23.698Z,34.55
2023-05-21T13:22:52.022Z,34.03
2023-05-21T13:25:22.012Z,34.38
2023-05-21T13:27:50.372Z,34.36
2023-05-21T13:30:18.728Z,33.68
2023-05-21T13:32:45.939Z,33.82
2023-05-21T13:35:12.951Z,33.78
2023-05-21T13:37:41.296Z,33.50
2023-05-21T13:40:14.857Z,32.71
2023-05-21T13:42:46.961Z,32.73
2023-05-21T13:45:17.673Z,32.39
2023-05-21T13:47:46.891Z,31.77
2023-05-21T13:50:14.078Z,31.04
2023-05-21T13:52:41.165Z,31.38
2023-05-21T13:55:08.889Z,31.27
2023-05-21T13:57:35.912Z,30.56
2023-05-21T14:00:03.801Z,30.09
2023-05-21T14:02:34.665Z,29.94
2023-05-21T14:05:01.743Z,29.93
2023-05-21T14:07:28.674Z,29.45
2023-05-21T14:09:55.999Z,29.39
2023-05-21T14:12:22.950Z,29.14
2023-05-21T14:14:49.932Z,29.24
2023-05-21T14:17:17.093Z,29.61
2023-05-21T14:19:43.978Z,29.37
2023-05-21T14:22:11.216Z,29.21
2023-05-21T14:24:38.120Z,29.26
2023-05-21T14:27:05.177Z,29.44
2023-05-21T14:29:33.169Z,29.64
2023-05-21T14:32:00.118Z,29.32
2023-05-21T14:34:27.239Z,29.23
2023-05-21T14:36:54.120Z,29.49
2023-05-21T14:39:20.969Z,29.41
2023-05-21T14:41:47.805Z,29.32
2023-05-21T14:44:14.635Z,29.27
2023-05-21T14:46:41.915Z,29.28
2023-05-21T14:49:08.972Z,29.46
2023-05-21T14:51:35.807Z,29.51
2023-05-21T14:54:02.671Z,29.25
2023-05-21T14:56:29.555Z,29.69
2023-05-21T14:58:56.485Z,29.42
2023-05-21T15:01:23.772Z,29.38
2023-05-21T15:03:51.113Z,29.50
2023-05-21T15:06:18.266Z,29.81
2023-05-21T15:08:45.123Z,29.40
2023-05-21T15:11:11.933Z,29.82
2023-05-21T15:13:39.504Z,29.74
2023-05-21T15:16:06.719Z,29.81
2023-05-21T15:18:33.949Z,29.86
2023-05-21T15:21:00.798Z,29.94
2023-05-21T15:23:27.744Z,29.94
2023-05-21T15:25:55.522Z,30.19
2023-05-21T15:28:22.970Z,30.58
2023-05-21T15:30:49.864Z,31.02
2023-05-21T15:33:16.779Z,30.97
2023-05-21T15:35:44.273Z,31.39
2023-05-21T15:38:11.684Z,31.21
